createdAt,value
2019-03-17T00:00:42.555Z,100.00
2019-03-17T00:03:15.619Z,100.00
2019-03-17T00:05:47.602Z,100.00
2019-03-17T00:08:20.617Z,100.00
2019-03-17T00:10:53.868Z,100.00
2019-03-17T00:13:27.546Z,100.00
2019-03-17T00:15:58.875Z,100.00
2019-03-17T00:18:30.710Z,100.00
2019-03-17T00:21:03.635Z,100.00
2019-03-17T00:23:38.170Z,100.00
2019-03-17T00:26:10.633Z,100.00
2019-03-17T00:28:44.352Z,100.00
2019-03-17T00:31:23.621Z,100.00
2019-03-17T00:33:53.795Z,100.00
2019-03-17T00:36:27.366Z,100.00
2019-03-17T00:38:59.877Z,100.00
2019-03-17T00:41:32.745Z,100.00
2019-03-17T00:44:05.773Z,100.00
2019-03-17T00:46:38.613Z,100.00
2019-03-17T00:49:12.890Z,100.00
2019-03-17T00:51:45.820Z,100.00
2019-03-17T00:54:17.915Z,100.00
2019-03-17T00:56:50.947Z,100.00
2019-03-17T00:59:22.749Z,100.00
2019-03-17T01:01:54.300Z,100.00
2019-03-17T01:04:26.942Z,100.00
2019-03-17T01:06:58.949Z,100.00
2019-03-17T01:09:30.990Z,100.00
2019-03-17T01:12:03.356Z,100.00
2019-03-17T01:14:35.791Z,100.00
2019-03-17T01:17:09.052Z,100.00
2019-03-17T01:19:42.899Z,100.00
2019-03-17T01:22:14.948Z,100.00
2019-03-17T01:24:47.828Z,100.00
2019-03-17T01:27:19.989Z,100.00
2019-03-17T01:29:53.851Z,100.00
2019-03-17T01:32:28.127Z,100.00
2019-03-17T01:35:09.133Z,100.00
2019-03-17T01:37:33.848Z,100.00
2019-03-17T01:40:05.813Z,100.00
2019-03-17T01:42:38.994Z,100.00
2019-03-17T01:45:10.860Z,100.00
2019-03-17T01:47:43.054Z,100.00
2019-03-17T01:50:15.100Z,100.00
2019-03-17T01:52:49.189Z,100.00
2019-03-17T01:55:21.919Z,100.00
2019-03-17T01:57:54.043Z,100.00
2019-03-17T02:00:26.261Z,100.00
2019-03-17T02:03:00.958Z,100.00
2019-03-17T02:05:33.074Z,100.00
2019-03-17T02:08:06.167Z,100.00
2019-03-17T02:10:39.398Z,100.00
2019-03-17T02:13:12.187Z,100.00
2019-03-17T02:15:45.265Z,100.00
2019-03-17T02:18:17.119Z,100.00
2019-03-17T02:20:50.930Z,100.00
2019-03-17T02:23:22.465Z,100.00
2019-03-17T02:25:54.430Z,100.00
2019-03-17T02:28:27.365Z,100.00
2019-03-17T02:31:00.373Z,100.00
2019-03-17T02:33:33.295Z,100.00
2019-03-17T02:36:06.190Z,100.00
2019-03-17T02:38:39.341Z,100.00
2019-03-17T02:41:15.843Z,100.00
2019-03-17T02:43:49.323Z,100.00
2019-03-17T02:46:21.235Z,100.00
2019-03-17T02:48:54.227Z,100.00
2019-03-17T02:51:27.233Z,100.00
2019-03-17T02:54:00.374Z,100.00
2019-03-17T02:56:34.332Z,100.00
2019-03-17T02:59:06.395Z,100.00
2019-03-17T03:01:40.283Z,100.00
2019-03-17T03:04:12.371Z,100.00
2019-03-17T03:06:45.405Z,100.00
2019-03-17T03:09:18.499Z,100.00
2019-03-17T03:11:50.410Z,100.00
2019-03-17T03:14:24.416Z,100.00
2019-03-17T03:16:57.276Z,100.00
2019-03-17T03:19:29.579Z,100.00
2019-03-17T03:22:04.577Z,100.00
2019-03-17T03:24:36.428Z,100.00
2019-03-17T03:27:09.520Z,100.00
2019-03-17T03:29:43.518Z,100.00
2019-03-17T03:32:15.601Z,100.00
2019-03-17T03:34:49.565Z,100.00
2019-03-17T03:37:21.517Z,100.00
2019-03-17T03:39:53.529Z,100.00
2019-03-17T03:42:29.286Z,100.00
2019-03-17T03:45:02.310Z,100.00
2019-03-17T03:47:33.665Z,100.00
2019-03-17T03:50:07.696Z,100.00
2019-03-17T03:52:39.402Z,100.00
2019-03-17T03:55:12.341Z,100.00
2019-03-17T03:57:45.660Z,100.00
2019-03-17T04:00:17.022Z,100.00
2019-03-17T04:02:49.672Z,100.00
2019-03-17T04:05:21.586Z,100.00
2019-03-17T04:07:54.121Z,100.00
2019-03-17T04:10:26.212Z,100.00
2019-03-17T04:12:57.560Z,100.00
2019-03-17T04:15:30.791Z,100.00
2019-03-17T04:18:03.844Z,100.00
2019-03-17T04:20:36.626Z,100.00
2019-03-17T04:23:09.851Z,100.00
2019-03-17T04:25:41.904Z,100.00
2019-03-17T04:28:15.780Z,100.00
2019-03-17T04:30:48.774Z,100.00
2019-03-17T04:33:21.849Z,100.00
2019-03-17T04:35:53.972Z,100.00
2019-03-17T04:38:25.887Z,100.00
2019-03-17T04:40:59.032Z,100.00
2019-03-17T04:43:30.767Z,100.00
2019-03-17T04:46:03.987Z,100.00
2019-03-17T04:48:35.734Z,100.00
2019-03-17T04:51:07.194Z,100.00
2019-03-17T04:53:38.971Z,100.00
2019-03-17T04:56:12.079Z,100.00
2019-03-17T04:58:43.862Z,100.00
2019-03-17T05:01:16.607Z,100.00
2019-03-17T05:03:51.538Z,100.00
2019-03-17T05:06:25.563Z,100.00
2019-03-17T05:08:58.030Z,100.00
2019-03-17T05:11:31.148Z,100.00
2019-03-17T05:14:04.025Z,100.00
2019-03-17T05:16:38.084Z,100.00
2019-03-17T05:19:11.036Z,100.00
2019-03-17T05:21:45.585Z,100.00
2019-03-17T05:24:17.766Z,100.00
2019-03-17T05:26:49.064Z,100.00
2019-03-17T05:29:22.103Z,100.00
2019-03-17T05:31:54.156Z,100.00
2019-03-17T05:34:26.796Z,100.00
2019-03-17T05:37:06.224Z,100.00
2019-03-17T05:39:34.322Z,100.00
2019-03-17T05:42:07.003Z,100.00
2019-03-17T05:44:40.988Z,100.00
2019-03-17T05:47:13.032Z,100.00
2019-03-17T05:49:48.686Z,100.00
2019-03-17T05:52:22.474Z,100.00
2019-03-17T05:54:54.300Z,100.00
2019-03-17T05:57:26.360Z,100.00
2019-03-17T06:00:00.412Z,100.00
2019-03-17T06:02:33.251Z,100.00
2019-03-17T06:05:07.113Z,100.00
2019-03-17T06:07:39.212Z,100.00
2019-03-17T06:10:14.805Z,100.00
2019-03-17T06:12:48.503Z,100.00
2019-03-17T06:15:22.260Z,100.00
2019-03-17T06:17:54.482Z,100.00
2019-03-17T06:20:29.169Z,100.00
2019-03-17T06:23:03.267Z,100.00
2019-03-17T06:25:36.412Z,100.00
2019-03-17T06:28:09.251Z,100.00
2019-03-17T06:30:42.367Z,100.00
2019-03-17T06:33:16.428Z,100.00
2019-03-17T06:35:49.308Z,100.00
2019-03-17T06:38:22.755Z,100.00
2019-03-17T06:40:55.924Z,100.00
2019-03-17T06:43:28.398Z,100.00
2019-03-17T06:46:00.352Z,100.00
2019-03-17T06:48:33.622Z,100.00
2019-03-17T06:51:06.947Z,100.00
2019-03-17T06:53:39.514Z,100.00
2019-03-17T06:56:12.437Z,100.00
2019-03-17T06:58:44.472Z,100.00
2019-03-17T07:01:19.029Z,100.00
2019-03-17T07:03:50.439Z,100.00
2019-03-17T07:06:22.567Z,100.00
2019-03-17T07:08:54.187Z,100.00
2019-03-17T07:11:27.539Z,100.00
2019-03-17T07:13:59.723Z,100.00
2019-03-17T07:16:33.613Z,100.00
2019-03-17T07:19:06.738Z,100.00
2019-03-17T07:21:39.512Z,100.00
2019-03-17T07:24:14.386Z,100.00
2019-03-17T07:26:48.523Z,100.00
2019-03-17T07:29:21.607Z,100.00
2019-03-17T07:31:54.464Z,100.00
2019-03-17T07:34:27.617Z,100.00
2019-03-17T07:37:00.703Z,100.00
2019-03-17T07:39:32.669Z,100.00
2019-03-17T07:42:05.692Z,100.00
2019-03-17T07:44:39.669Z,100.00
2019-03-17T07:47:12.770Z,100.00
2019-03-17T07:49:47.398Z,100.00
2019-03-17T07:52:23.233Z,100.00
2019-03-17T07:54:54.886Z,100.00
2019-03-17T07:57:27.606Z,100.00
2019-03-17T08:00:00.709Z,100.00
2019-03-17T08:02:33.757Z,100.00
2019-03-17T08:05:07.581Z,100.00
2019-03-17T08:07:39.780Z,100.00
2019-03-17T08:10:13.107Z,100.00
2019-03-17T08:12:46.867Z,100.00
2019-03-17T08:15:19.731Z,99.99
2019-03-17T08:17:52.770Z,100.00
2019-03-17T08:20:24.761Z,100.00
2019-03-17T08:22:57.824Z,99.62
2019-03-17T08:25:31.797Z,100.00
2019-03-17T08:28:04.596Z,100.00
2019-03-17T08:30:37.836Z,100.00
2019-03-17T08:33:11.775Z,100.00
2019-03-17T08:35:44.017Z,100.00
2019-03-17T08:38:22.060Z,100.00
2019-03-17T08:40:52.785Z,99.93
2019-03-17T08:43:24.989Z,99.59
2019-03-17T08:45:57.887Z,97.24
2019-03-17T08:48:29.950Z,98.15
2019-03-17T08:51:04.070Z,96.93
2019-03-17T08:53:36.040Z,96.73
2019-03-17T08:56:10.108Z,94.45
2019-03-17T08:58:45.514Z,93.74
2019-03-17T09:01:19.213Z,93.68
2019-03-17T09:03:54.022Z,93.41
2019-03-17T09:06:28.772Z,92.17
2019-03-17T09:09:02.077Z,90.81
2019-03-17T09:11:34.220Z,87.58
2019-03-17T09:14:07.124Z,86.30
2019-03-17T09:16:40.356Z,87.43
2019-03-17T09:19:13.175Z,86.77
2019-03-17T09:21:46.172Z,85.59
2019-03-17T09:24:19.170Z,84.17
2019-03-17T09:26:52.248Z,82.23
2019-03-17T09:29:25.246Z,80.38
2019-03-17T09:31:58.359Z,78.83
2019-03-17T09:34:31.120Z,80.46
2019-03-17T09:37:03.289Z,79.51
2019-03-17T09:39:35.186Z,77.57
2019-03-17T09:42:07.257Z,75.80
2019-03-17T09:44:41.162Z,75.68
2019-03-17T09:47:13.255Z,77.26
2019-03-17T09:49:46.123Z,76.44
2019-03-17T09:52:19.286Z,75.50
2019-03-17T09:54:51.321Z,73.13
2019-03-17T09:57:25.430Z,72.91
2019-03-17T09:59:58.378Z,71.33
2019-03-17T10:02:32.526Z,70.84
2019-03-17T10:05:04.562Z,70.65
2019-03-17T10:07:38.203Z,70.42
2019-03-17T10:10:11.857Z,68.85
2019-03-17T10:12:43.290Z,68.45
2019-03-17T10:15:16.384Z,67.56
2019-03-17T10:17:48.495Z,69.63
2019-03-17T10:20:22.367Z,66.57
2019-03-17T10:22:54.596Z,64.26
2019-03-17T10:25:28.429Z,64.67
2019-03-17T10:28:01.463Z,63.82
2019-03-17T10:30:34.439Z,63.73
2019-03-17T10:33:07.730Z,61.00
2019-03-17T10:35:40.375Z,61.17
2019-03-17T10:38:12.878Z,61.86
2019-03-17T10:40:45.522Z,60.88
2019-03-17T10:43:19.521Z,61.38
2019-03-17T10:45:52.540Z,57.55
2019-03-17T10:48:26.760Z,60.21
2019-03-17T10:50:58.500Z,57.09
2019-03-17T10:53:31.676Z,54.19
2019-03-17T10:56:04.673Z,51.40
2019-03-17T10:58:37.588Z,50.91
2019-03-17T11:01:10.537Z,51.39
2019-03-17T11:03:43.393Z,51.79
2019-03-17T11:06:16.585Z,56.18
2019-03-17T11:08:49.712Z,56.79
2019-03-17T11:11:23.540Z,52.33
2019-03-17T11:13:55.112Z,54.42
2019-03-17T11:16:30.426Z,54.79
2019-03-17T11:19:06.606Z,52.65
2019-03-17T11:21:42.251Z,53.88
2019-03-17T11:24:15.774Z,55.11
2019-03-17T11:26:48.919Z,54.56
2019-03-17T11:29:21.860Z,52.71
2019-03-17T11:31:54.815Z,52.69
2019-03-17T11:34:28.923Z,52.01
2019-03-17T11:37:01.980Z,51.07
2019-03-17T11:39:37.971Z,50.97
2019-03-17T11:42:09.922Z,53.88
2019-03-17T11:44:42.756Z,54.13
2019-03-17T11:47:15.807Z,53.18
2019-03-17T11:49:49.175Z,55.32
2019-03-17T11:52:21.818Z,53.87
2019-03-17T11:54:53.241Z,53.44
2019-03-17T11:57:24.797Z,50.90
2019-03-17T11:59:58.027Z,52.34
2019-03-17T12:02:30.099Z,51.32
2019-03-17T12:05:04.474Z,50.80
2019-03-17T12:07:37.985Z,51.83
2019-03-17T12:10:11.845Z,50.33
2019-03-17T12:12:45.947Z,31.41
2019-03-17T12:15:19.910Z,33.71
2019-03-17T12:17:51.905Z,33.22
2019-03-17T12:20:25.152Z,33.29
2019-03-17T12:22:58.022Z,30.35
2019-03-17T12:25:30.958Z,27.57
2019-03-17T12:28:04.049Z,32.85
2019-03-17T12:30:36.012Z,28.49
2019-03-17T12:33:12.686Z,26.19
2019-03-17T12:35:46.198Z,28.44
2019-03-17T12:38:19.307Z,26.05
2019-03-17T12:40:52.014Z,27.83
2019-03-17T12:43:24.273Z,28.62
2019-03-17T12:45:56.217Z,28.23
2019-03-17T12:48:28.290Z,24.74
2019-03-17T12:51:01.382Z,23.24
2019-03-17T12:53:34.320Z,23.25
2019-03-17T12:56:07.363Z,23.68
2019-03-17T12:58:41.350Z,24.47
2019-03-17T13:01:14.167Z,23.86
2019-03-17T13:03:48.950Z,26.97
2019-03-17T13:06:23.552Z,23.58
2019-03-17T13:08:56.951Z,24.82
2019-03-17T13:11:31.212Z,23.53
2019-03-17T13:14:02.608Z,22.97
2019-03-17T13:16:34.087Z,22.75
2019-03-17T13:19:07.290Z,21.25
2019-03-17T13:21:40.460Z,22.54
2019-03-17T13:24:13.485Z,22.99
2019-03-17T13:26:46.555Z,21.49
2019-03-17T13:29:19.366Z,22.67
2019-03-17T13:31:51.253Z,21.31
2019-03-17T13:34:24.368Z,22.91
2019-03-17T13:36:55.753Z,23.00
2019-03-17T13:39:28.452Z,24.04
2019-03-17T13:42:01.354Z,24.54
2019-03-17T13:44:33.591Z,23.56
2019-03-17T13:47:08.654Z,24.38
2019-03-17T13:49:40.346Z,23.86
2019-03-17T13:52:13.343Z,23.02
2019-03-17T13:54:46.671Z,25.44
2019-03-17T13:57:19.491Z,24.49
2019-03-17T13:59:53.339Z,25.22
2019-03-17T14:02:25.683Z,24.85
2019-03-17T14:04:57.842Z,24.48
2019-03-17T14:07:34.349Z,23.58
2019-03-17T14:10:13.755Z,24.01
2019-03-17T14:12:41.599Z,24.34
2019-03-17T14:15:15.042Z,23.13
2019-03-17T14:17:46.362Z,24.04
2019-03-17T14:20:20.849Z,27.18
2019-03-17T14:22:53.815Z,25.92
2019-03-17T14:25:26.309Z,24.78
2019-03-17T14:27:58.755Z,25.99
2019-03-17T14:30:31.499Z,24.24
2019-03-17T14:33:04.423Z,25.19
2019-03-17T14:35:38.490Z,24.73
2019-03-17T14:38:14.539Z,25.22
2019-03-17T14:40:53.365Z,23.92
2019-03-17T14:43:22.797Z,24.43
2019-03-17T14:45:55.175Z,25.29
2019-03-17T14:48:26.483Z,23.72
2019-03-17T14:50:59.345Z,24.38
2019-03-17T14:53:31.686Z,24.85
2019-03-17T14:56:04.848Z,25.25
2019-03-17T14:58:36.683Z,24.62
2019-03-17T15:01:09.711Z,24.97
2019-03-17T15:03:42.590Z,24.44
2019-03-17T15:06:16.795Z,23.84
2019-03-17T15:08:48.966Z,25.06
2019-03-17T15:11:22.693Z,24.96
2019-03-17T15:13:53.987Z,24.06
2019-03-17T15:16:25.773Z,24.60
2019-03-17T15:18:58.676Z,25.20
2019-03-17T15:21:31.722Z,26.05
2019-03-17T15:24:04.925Z,26.12
2019-03-17T15:26:37.961Z,26.75
2019-03-17T15:29:10.861Z,26.00
2019-03-17T15:31:42.269Z,26.38
2019-03-17T15:34:13.819Z,26.63
2019-03-17T15:36:47.172Z,27.34
2019-03-17T15:39:19.831Z,26.84
2019-03-17T15:41:52.281Z,26.78
2019-03-17T15:44:23.908Z,27.29
2019-03-17T15:46:55.445Z,27.58
2019-03-17T15:49:26.889Z,27.37
2019-03-17T15:51:58.990Z,27.77
2019-03-17T15:54:32.040Z,27.92
2019-03-17T15:57:05.026Z,28.21
2019-03-17T15:59:38.052Z,28.64
2019-03-17T16:02:11.081Z,28.78
2019-03-17T16:04:43.999Z,29.29
2019-03-17T16:07:17.235Z,29.03
2019-03-17T16:09:50.101Z,29.60
2019-03-17T16:12:23.102Z,29.62
2019-03-17T16:14:55.153Z,29.74
2019-03-17T16:17:28.934Z,30.62
2019-03-17T16:20:02.147Z,33.00
2019-03-17T16:22:35.030Z,33.79
2019-03-17T16:25:08.834Z,35.37
2019-03-17T16:27:41.156Z,36.13
2019-03-17T16:30:18.174Z,37.15
2019-03-17T16:32:50.447Z,37.78
2019-03-17T16:35:24.094Z,37.60
2019-03-17T16:37:56.403Z,37.28
2019-03-17T16:40:29.524Z,38.39
2019-03-17T16:43:03.102Z,39.23
2019-03-17T16:45:35.238Z,40.72
2019-03-17T16:48:07.156Z,42.22
2019-03-17T16:50:40.321Z,41.15
2019-03-17T16:53:13.165Z,42.84
2019-03-17T16:55:48.820Z,43.42
2019-03-17T16:58:20.268Z,44.37
2019-03-17T17:00:54.363Z,44.91
2019-03-17T17:03:28.394Z,43.67
2019-03-17T17:06:01.244Z,44.83
2019-03-17T17:08:34.434Z,47.10
2019-03-17T17:11:07.318Z,46.98
2019-03-17T17:13:40.450Z,46.39
2019-03-17T17:16:13.410Z,47.02
2019-03-17T17:18:46.434Z,47.45
2019-03-17T17:21:19.445Z,46.92
2019-03-17T17:23:51.228Z,46.83
2019-03-17T17:26:23.575Z,46.25
2019-03-17T17:28:55.785Z,47.46
2019-03-17T17:31:29.579Z,47.74
2019-03-17T17:34:01.538Z,48.22
2019-03-17T17:36:35.964Z,48.06
2019-03-17T17:39:09.837Z,50.77
2019-03-17T17:41:41.417Z,51.92
2019-03-17T17:44:14.552Z,52.92
2019-03-17T17:46:47.618Z,53.67
2019-03-17T17:49:19.469Z,54.92
2019-03-17T17:51:53.662Z,55.33
2019-03-17T17:54:25.492Z,55.47
2019-03-17T17:56:58.704Z,54.83
2019-03-17T17:59:31.595Z,53.37
2019-03-17T18:02:04.630Z,52.58
2019-03-17T18:04:37.627Z,51.21
2019-03-17T18:07:11.166Z,51.52
2019-03-17T18:09:43.664Z,51.16
2019-03-17T18:12:21.345Z,50.58
2019-03-17T18:14:52.881Z,50.27
2019-03-17T18:17:26.028Z,50.36
2019-03-17T18:19:58.507Z,50.48
2019-03-17T18:22:31.685Z,50.73
2019-03-17T18:25:05.182Z,50.90
2019-03-17T18:27:37.634Z,51.19
2019-03-17T18:30:12.638Z,50.56
2019-03-17T18:32:46.901Z,50.81
2019-03-17T18:35:18.559Z,50.95
2019-03-17T18:37:51.966Z,51.39
2019-03-17T18:40:24.779Z,51.14
2019-03-17T18:42:56.148Z,51.15
2019-03-17T18:45:28.708Z,51.25
2019-03-17T18:48:01.789Z,51.48
2019-03-17T18:50:34.774Z,51.39
2019-03-17T18:53:07.829Z,52.39
2019-03-17T18:55:40.737Z,53.71
2019-03-17T18:58:13.962Z,52.88
2019-03-17T19:00:47.096Z,53.23
2019-03-17T19:03:19.963Z,53.71
2019-03-17T19:05:51.308Z,54.41
2019-03-17T19:08:26.529Z,54.06
2019-03-17T19:10:59.028Z,53.62
2019-03-17T19:13:32.107Z,52.60
2019-03-17T19:16:05.100Z,51.48
2019-03-17T19:18:36.935Z,51.80
2019-03-17T19:21:08.504Z,52.29
2019-03-17T19:23:41.004Z,52.59
2019-03-17T19:26:13.947Z,52.93
2019-03-17T19:28:46.966Z,53.10
2019-03-17T19:31:20.601Z,53.48
2019-03-17T19:33:54.905Z,53.87
2019-03-17T19:36:28.028Z,53.86
2019-03-17T19:39:01.920Z,54.33
2019-03-17T19:41:36.032Z,55.04
2019-03-17T19:44:09.499Z,55.88
2019-03-17T19:46:42.158Z,56.52
2019-03-17T19:49:14.090Z,56.24
2019-03-17T19:51:47.236Z,56.61
2019-03-17T19:54:19.738Z,56.44
2019-03-17T19:56:52.077Z,57.45
2019-03-17T19:59:24.383Z,58.19
2019-03-17T20:01:55.820Z,58.19
2019-03-17T20:04:35.058Z,57.70
2019-03-17T20:07:10.245Z,57.45
2019-03-17T20:09:44.499Z,57.42
2019-03-17T20:12:19.416Z,57.12
2019-03-17T20:14:52.062Z,56.94
2019-03-17T20:17:26.190Z,57.44
2019-03-17T20:19:59.151Z,57.27
2019-03-17T20:22:33.172Z,57.19
2019-03-17T20:25:05.766Z,57.29
2019-03-17T20:27:39.412Z,56.84
2019-03-17T20:30:12.968Z,57.24
2019-03-17T20:32:47.136Z,57.88
2019-03-17T20:35:21.789Z,57.36
2019-03-17T20:37:53.135Z,57.72
2019-03-17T20:40:26.453Z,57.83
2019-03-17T20:42:59.196Z,58.55
2019-03-17T20:45:32.387Z,58.18
2019-03-17T20:48:05.255Z,57.63
2019-03-17T20:50:38.257Z,58.28
2019-03-17T20:53:11.432Z,58.28
2019-03-17T20:55:45.385Z,58.14
2019-03-17T20:58:17.424Z,61.88
2019-03-17T21:00:49.475Z,64.57
2019-03-17T21:03:23.542Z,66.49
2019-03-17T21:05:56.813Z,67.65
2019-03-17T21:08:29.420Z,68.35
2019-03-17T21:11:02.411Z,69.60
2019-03-17T21:13:46.131Z,68.86
2019-03-17T21:16:08.590Z,69.36
2019-03-17T21:18:44.402Z,69.76
2019-03-17T21:21:17.519Z,69.59
2019-03-17T21:23:53.484Z,69.00
2019-03-17T21:26:26.373Z,68.99
2019-03-17T21:28:59.459Z,68.99
2019-03-17T21:31:33.158Z,68.18
2019-03-17T21:34:06.673Z,68.98
2019-03-17T21:36:40.212Z,69.39
2019-03-17T21:39:12.936Z,69.12
2019-03-17T21:41:45.451Z,70.79
2019-03-17T21:44:17.504Z,71.04
2019-03-17T21:46:52.951Z,71.82
2019-03-17T21:49:25.936Z,72.59
2019-03-17T21:51:59.270Z,73.63
2019-03-17T21:54:31.932Z,74.49
2019-03-17T21:57:05.594Z,75.92
2019-03-17T21:59:39.649Z,77.03
2019-03-17T22:02:13.172Z,78.07
2019-03-17T22:04:49.028Z,80.21
2019-03-17T22:07:20.764Z,81.49
2019-03-17T22:09:53.784Z,82.03
2019-03-17T22:12:25.663Z,82.71
2019-03-17T22:14:58.656Z,83.29
2019-03-17T22:17:33.265Z,83.09
2019-03-17T22:20:06.006Z,84.14
2019-03-17T22:22:37.517Z,85.92
2019-03-17T22:25:10.803Z,85.99
2019-03-17T22:27:42.863Z,85.77
2019-03-17T22:30:16.828Z,85.80
2019-03-17T22:32:49.837Z,86.59
2019-03-17T22:35:23.660Z,85.67
2019-03-17T22:37:55.900Z,86.70
2019-03-17T22:40:28.776Z,87.05
2019-03-17T22:43:02.229Z,88.57
2019-03-17T22:45:33.770Z,88.66
2019-03-17T22:48:07.759Z,88.49
2019-03-17T22:50:39.359Z,89.78
2019-03-17T22:53:10.893Z,89.29
2019-03-17T22:55:43.805Z,90.03
2019-03-17T22:58:16.667Z,89.73
2019-03-17T23:00:50.233Z,89.48
2019-03-17T23:03:23.582Z,90.66
2019-03-17T23:05:55.709Z,91.22
2019-03-17T23:08:29.039Z,90.87
2019-03-17T23:11:02.031Z,91.15
2019-03-17T23:13:35.840Z,90.93
2019-03-17T23:16:07.789Z,91.18
2019-03-17T23:18:39.944Z,90.40
2019-03-17T23:21:13.793Z,90.63
2019-03-17T23:23:46.076Z,91.68
2019-03-17T23:26:18.990Z,92.32
2019-03-17T23:28:52.813Z,92.15
2019-03-17T23:31:25.089Z,92.62
2019-03-17T23:33:56.367Z,92.60
2019-03-17T23:36:29.082Z,93.04
2019-03-17T23:39:02.109Z,93.87
2019-03-17T23:41:34.940Z,93.11
2019-03-17T23:44:07.999Z,91.56
2019-03-17T23:46:42.666Z,91.70
2019-03-17T23:49:15.027Z,91.46
2019-03-17T23:51:48.094Z,92.42
2019-03-17T23:54:23.795Z,92.16
2019-03-17T23:56:57.293Z,92.71
2019-03-17T23:59:30.048Z,91.98
